sensor_id;sensor_type;location;lat;lon;timestamp;temperature;humidity
20487;DHT22;10402;49.012;8.370;2023-06-22T00:01:55;24.20;73.20
20487;DHT22;10402;49.012;8.370;2023-06-22T00:04:21;24.20;73.10
20487;DHT22;10402;49.012;8.370;2023-06-22T00:06:46;24.30;73.10
20487;DHT22;10402;49.012;8.370;2023-06-22T00:09:12;24.20;73.10
20487;DHT22;10402;49.012;8.370;2023-06-22T00:11:38;24.20;73.40
20487;DHT22;10402;49.012;8.370;2023-06-22T00:14:04;24.20;73.50
20487;DHT22;10402;49.012;8.370;2023-06-22T00:16:31;24.20;73.70
20487;DHT22;10402;49.012;8.370;2023-06-22T00:18:56;24.10;73.80
20487;DHT22;10402;49.012;8.370;2023-06-22T00:21:23;24.10;74.00
20487;DHT22;10402;49.012;8.370;2023-06-22T00:23:49;24.20;74.10
20487;DHT22;10402;49.012;8.370;2023-06-22T00:26:14;24.10;74.20
20487;DHT22;10402;49.012;8.370;2023-06-22T00:28:40;24.10;74.30
20487;DHT22;10402;49.012;8.370;2023-06-22T00:31:05;24.10;74.30
20487;DHT22;10402;49.012;8.370;2023-06-22T00:33:31;24.20;74.30
20487;DHT22;10402;49.012;8.370;2023-06-22T00:35:57;24.20;74.20
20487;DHT22;10402;49.012;8.370;2023-06-22T00:38:23;24.10;74.50
20487;DHT22;10402;49.012;8.370;2023-06-22T00:40:48;24.00;75.30
20487;DHT22;10402;49.012;8.370;2023-06-22T00:43:14;23.90;75.90
20487;DHT22;10402;49.012;8.370;2023-06-22T00:45:39;23.80;76.30
20487;DHT22;10402;49.012;8.370;2023-06-22T00:48:06;23.70;76.50
20487;DHT22;10402;49.012;8.370;2023-06-22T00:50:33;23.70;76.90
20487;DHT22;10402;49.012;8.370;2023-06-22T00:53:02;23.60;77.30
20487;DHT22;10402;49.012;8.370;2023-06-22T00:55:34;23.40;77.70
20487;DHT22;10402;49.012;8.370;2023-06-22T00:58:03;23.30;78.20
20487;DHT22;10402;49.012;8.370;2023-06-22T01:00:31;23.20;78.50
20487;DHT22;10402;49.012;8.370;2023-06-22T01:02:58;23.20;78.80
20487;DHT22;10402;49.012;8.370;2023-06-22T01:05:24;23.20;79.00
20487;DHT22;10402;49.012;8.370;2023-06-22T01:13:32;23.10;79.70
20487;DHT22;10402;49.012;8.370;2023-06-22T01:18:30;23.00;79.90
20487;DHT22;10402;49.012;8.370;2023-06-22T01:20:56;23.00;80.20
20487;DHT22;10402;49.012;8.370;2023-06-22T01:23:51;22.90;80.50
20487;DHT22;10402;49.012;8.370;2023-06-22T01:26:25;22.70;80.70
20487;DHT22;10402;49.012;8.370;2023-06-22T01:28:56;22.70;81.20
20487;DHT22;10402;49.012;8.370;2023-06-22T01:31:25;22.60;81.30
20487;DHT22;10402;49.012;8.370;2023-06-22T01:33:53;22.60;81.70
20487;DHT22;10402;49.012;8.370;2023-06-22T01:36:21;22.50;81.80
20487;DHT22;10402;49.012;8.370;2023-06-22T01:38:48;22.50;82.10
20487;DHT22;10402;49.012;8.370;2023-06-22T01:41:15;22.50;82.20
20487;DHT22;10402;49.012;8.370;2023-06-22T01:43:41;22.50;82.30
20487;DHT22;10402;49.012;8.370;2023-06-22T01:46:08;22.60;82.50
20487;DHT22;10402;49.012;8.370;2023-06-22T01:48:34;22.50;82.40
20487;DHT22;10402;49.012;8.370;2023-06-22T01:51:00;22.50;82.60
20487;DHT22;10402;49.012;8.370;2023-06-22T01:53:25;22.50;82.80
20487;DHT22;10402;49.012;8.370;2023-06-22T01:55:51;22.50;83.00
20487;DHT22;10402;49.012;8.370;2023-06-22T01:58:17;22.40;83.00
20487;DHT22;10402;49.012;8.370;2023-06-22T02:00:50;22.50;83.30
20487;DHT22;10402;49.012;8.370;2023-06-22T02:03:22;22.40;83.30
20487;DHT22;10402;49.012;8.370;2023-06-22T02:05:53;22.40;83.40
20487;DHT22;10402;49.012;8.370;2023-06-22T02:08:27;22.40;83.50
20487;DHT22;10402;49.012;8.370;2023-06-22T02:10:54;22.40;83.70
20487;DHT22;10402;49.012;8.370;2023-06-22T02:13:23;22.40;83.90
20487;DHT22;10402;49.012;8.370;2023-06-22T02:15:49;22.30;83.80
20487;DHT22;10402;49.012;8.370;2023-06-22T02:18:15;22.30;84.10
20487;DHT22;10402;49.012;8.370;2023-06-22T02:20:41;22.30;84.30
20487;DHT22;10402;49.012;8.370;2023-06-22T02:23:07;22.30;84.50
20487;DHT22;10402;49.012;8.370;2023-06-22T02:25:33;22.30;84.70
20487;DHT22;10402;49.012;8.370;2023-06-22T02:27:59;22.30;84.80
20487;DHT22;10402;49.012;8.370;2023-06-22T02:30:25;22.20;84.90
20487;DHT22;10402;49.012;8.370;2023-06-22T02:32:50;22.20;85.00
20487;DHT22;10402;49.012;8.370;2023-06-22T02:35:30;22.10;85.10
20487;DHT22;10402;49.012;8.370;2023-06-22T02:38:01;22.10;85.50
20487;DHT22;10402;49.012;8.370;2023-06-22T02:40:28;22.10;85.70
20487;DHT22;10402;49.012;8.370;2023-06-22T02:42:54;22.10;85.60
20487;DHT22;10402;49.012;8.370;2023-06-22T02:45:20;22.20;85.80
20487;DHT22;10402;49.012;8.370;2023-06-22T02:47:46;22.10;85.80
20487;DHT22;10402;49.012;8.370;2023-06-22T02:50:13;22.10;86.00
20487;DHT22;10402;49.012;8.370;2023-06-22T02:52:38;22.10;86.00
20487;DHT22;10402;49.012;8.370;2023-06-22T02:55:05;22.10;86.00
20487;DHT22;10402;49.012;8.370;2023-06-22T02:57:32;22.10;86.20
20487;DHT22;10402;49.012;8.370;2023-06-22T02:59:58;22.10;86.30
20487;DHT22;10402;49.012;8.370;2023-06-22T03:02:23;22.10;86.30
20487;DHT22;10402;49.012;8.370;2023-06-22T03:04:49;22.10;86.30
20487;DHT22;10402;49.012;8.370;2023-06-22T03:07:15;22.10;86.30
20487;DHT22;10402;49.012;8.370;2023-06-22T03:09:42;22.10;86.40
20487;DHT22;10402;49.012;8.370;2023-06-22T03:12:08;22.10;86.50
20487;DHT22;10402;49.012;8.370;2023-06-22T03:14:34;22.00;86.40
20487;DHT22;10402;49.012;8.370;2023-06-22T03:16:59;22.00;86.70
20487;DHT22;10402;49.012;8.370;2023-06-22T03:19:28;22.00;86.70
20487;DHT22;10402;49.012;8.370;2023-06-22T03:21:55;22.00;86.80
20487;DHT22;10402;49.012;8.370;2023-06-22T03:24:20;22.00;86.90
20487;DHT22;10402;49.012;8.370;2023-06-22T03:26:46;22.00;87.20
20487;DHT22;10402;49.012;8.370;2023-06-22T03:29:12;22.00;87.20
20487;DHT22;10402;49.012;8.370;2023-06-22T03:31:37;21.90;87.10
20487;DHT22;10402;49.012;8.370;2023-06-22T03:34:03;21.90;87.20
20487;DHT22;10402;49.012;8.370;2023-06-22T03:36:28;21.90;87.30
20487;DHT22;10402;49.012;8.370;2023-06-22T03:38:54;21.90;87.50
20487;DHT22;10402;49.012;8.370;2023-06-22T03:41:19;21.90;87.60
20487;DHT22;10402;49.012;8.370;2023-06-22T03:43:45;21.80;87.40
20487;DHT22;10402;49.012;8.370;2023-06-22T03:46:11;21.80;87.40
20487;DHT22;10402;49.012;8.370;2023-06-22T03:48:37;21.80;87.60
20487;DHT22;10402;49.012;8.370;2023-06-22T03:51:03;21.80;87.60
20487;DHT22;10402;49.012;8.370;2023-06-22T03:53:29;21.80;87.70
20487;DHT22;10402;49.012;8.370;2023-06-22T03:55:54;21.70;87.60
20487;DHT22;10402;49.012;8.370;2023-06-22T03:58:20;21.70;87.80
20487;DHT22;10402;49.012;8.370;2023-06-22T04:00:47;21.70;87.60
20487;DHT22;10402;49.012;8.370;2023-06-22T04:03:14;21.70;87.70
20487;DHT22;10402;49.012;8.370;2023-06-22T04:05:40;21.60;87.70
20487;DHT22;10402;49.012;8.370;2023-06-22T04:08:06;21.60;87.90
20487;DHT22;10402;49.012;8.370;2023-06-22T04:10:32;21.60;88.20
20487;DHT22;10402;49.012;8.370;2023-06-22T04:12:57;21.50;88.60
20487;DHT22;10402;49.012;8.370;2023-06-22T04:15:23;21.60;88.80
20487;DHT22;10402;49.012;8.370;2023-06-22T04:17:48;21.60;88.80
20487;DHT22;10402;49.012;8.370;2023-06-22T04:20:14;21.60;88.80
20487;DHT22;10402;49.012;8.370;2023-06-22T04:22:39;21.60;88.80
20487;DHT22;10402;49.012;8.370;2023-06-22T04:25:06;21.60;88.80
20487;DHT22;10402;49.012;8.370;2023-06-22T04:27:33;21.60;88.80
20487;DHT22;10402;49.012;8.370;2023-06-22T04:30:03;21.60;89.00
20487;DHT22;10402;49.012;8.370;2023-06-22T04:32:29;21.70;89.10
20487;DHT22;10402;49.012;8.370;2023-06-22T04:34:55;21.60;89.20
20487;DHT22;10402;49.012;8.370;2023-06-22T04:37:20;21.60;89.20
20487;DHT22;10402;49.012;8.370;2023-06-22T04:39:49;21.60;89.30
20487;DHT22;10402;49.012;8.370;2023-06-22T04:42:15;21.60;89.40
20487;DHT22;10402;49.012;8.370;2023-06-22T04:44:40;21.60;89.50
20487;DHT22;10402;49.012;8.370;2023-06-22T04:47:07;21.60;89.60
20487;DHT22;10402;49.012;8.370;2023-06-22T04:49:34;21.60;90.20
20487;DHT22;10402;49.012;8.370;2023-06-22T04:52:07;21.70;89.80
20487;DHT22;10402;49.012;8.370;2023-06-22T04:54:34;21.70;89.80
20487;DHT22;10402;49.012;8.370;2023-06-22T04:57:04;21.70;89.90
20487;DHT22;10402;49.012;8.370;2023-06-22T04:59:31;21.80;90.00
20487;DHT22;10402;49.012;8.370;2023-06-22T05:01:57;21.80;90.00
20487;DHT22;10402;49.012;8.370;2023-06-22T05:04:25;21.80;89.90
20487;DHT22;10402;49.012;8.370;2023-06-22T05:06:51;21.80;89.70
20487;DHT22;10402;49.012;8.370;2023-06-22T05:09:18;21.90;89.90
20487;DHT22;10402;49.012;8.370;2023-06-22T05:11:44;21.90;89.90
20487;DHT22;10402;49.012;8.370;2023-06-22T05:14:10;21.90;90.00
20487;DHT22;10402;49.012;8.370;2023-06-22T05:16:36;22.00;90.00
20487;DHT22;10402;49.012;8.370;2023-06-22T05:19:02;22.00;89.90
20487;DHT22;10402;49.012;8.370;2023-06-22T05:21:30;21.90;89.80
20487;DHT22;10402;49.012;8.370;2023-06-22T05:23:56;21.90;90.00
20487;DHT22;10402;49.012;8.370;2023-06-22T05:26:26;22.00;90.00
20487;DHT22;10402;49.012;8.370;2023-06-22T05:28:52;22.00;90.00
20487;DHT22;10402;49.012;8.370;2023-06-22T05:31:19;21.90;90.00
20487;DHT22;10402;49.012;8.370;2023-06-22T05:33:48;22.00;90.10
20487;DHT22;10402;49.012;8.370;2023-06-22T05:36:14;21.90;90.10
20487;DHT22;10402;49.012;8.370;2023-06-22T05:38:41;21.90;90.20
20487;DHT22;10402;49.012;8.370;2023-06-22T05:41:07;21.90;90.20
20487;DHT22;10402;49.012;8.370;2023-06-22T05:43:33;22.00;90.40
20487;DHT22;10402;49.012;8.370;2023-06-22T05:46:00;22.00;90.40
20487;DHT22;10402;49.012;8.370;2023-06-22T05:48:26;22.00;90.30
20487;DHT22;10402;49.012;8.370;2023-06-22T05:50:51;22.10;90.40
20487;DHT22;10402;49.012;8.370;2023-06-22T05:53:17;22.10;90.50
20487;DHT22;10402;49.012;8.370;2023-06-22T05:55:43;22.10;90.50
20487;DHT22;10402;49.012;8.370;2023-06-22T05:58:08;22.10;90.50
20487;DHT22;10402;49.012;8.370;2023-06-22T06:00:35;22.10;90.50
20487;DHT22;10402;49.012;8.370;2023-06-22T06:03:00;22.10;90.50
20487;DHT22;10402;49.012;8.370;2023-06-22T06:05:33;22.10;90.60
20487;DHT22;10402;49.012;8.370;2023-06-22T06:08:00;22.20;90.70
20487;DHT22;10402;49.012;8.370;2023-06-22T06:10:26;22.10;90.60
20487;DHT22;10402;49.012;8.370;2023-06-22T06:12:52;22.20;90.60
20487;DHT22;10402;49.012;8.370;2023-06-22T06:15:18;22.20;90.60
20487;DHT22;10402;49.012;8.370;2023-06-22T06:17:51;22.30;90.60
20487;DHT22;10402;49.012;8.370;2023-06-22T06:20:21;22.30;90.60
20487;DHT22;10402;49.012;8.370;2023-06-22T06:22:47;22.30;90.60
20487;DHT22;10402;49.012;8.370;2023-06-22T06:25:13;22.30;90.60
20487;DHT22;10402;49.012;8.370;2023-06-22T06:27:45;22.40;90.60
20487;DHT22;10402;49.012;8.370;2023-06-22T06:30:12;22.50;90.70
20487;DHT22;10402;49.012;8.370;2023-06-22T06:32:38;22.50;90.60
20487;DHT22;10402;49.012;8.370;2023-06-22T06:35:09;22.50;90.60
20487;DHT22;10402;49.012;8.370;2023-06-22T06:37:43;22.60;90.60
20487;DHT22;10402;49.012;8.370;2023-06-22T06:40:10;22.70;90.60
20487;DHT22;10402;49.012;8.370;2023-06-22T06:42:40;22.70;90.60
20487;DHT22;10402;49.012;8.370;2023-06-22T06:45:08;22.80;90.60
20487;DHT22;10402;49.012;8.370;2023-06-22T06:47:34;22.80;90.60
20487;DHT22;10402;49.012;8.370;2023-06-22T06:49:59;22.80;90.90
20487;DHT22;10402;49.012;8.370;2023-06-22T06:52:25;22.90;90.70
20487;DHT22;10402;49.012;8.370;2023-06-22T06:54:51;22.90;90.70
20487;DHT22;10402;49.012;8.370;2023-06-22T06:57:18;23.00;90.70
20487;DHT22;10402;49.012;8.370;2023-06-22T06:59:43;23.00;90.60
20487;DHT22;10402;49.012;8.370;2023-06-22T07:02:09;23.00;90.60
20487;DHT22;10402;49.012;8.370;2023-06-22T07:04:34;23.10;90.60
20487;DHT22;10402;49.012;8.370;2023-06-22T07:07:01;23.10;90.60
20487;DHT22;10402;49.012;8.370;2023-06-22T07:09:27;23.20;90.50
20487;DHT22;10402;49.012;8.370;2023-06-22T07:11:53;23.20;90.50
20487;DHT22;10402;49.012;8.370;2023-06-22T07:14:18;23.30;90.50
20487;DHT22;10402;49.012;8.370;2023-06-22T07:16:44;23.30;90.80
20487;DHT22;10402;49.012;8.370;2023-06-22T07:19:11;23.40;90.40
20487;DHT22;10402;49.012;8.370;2023-06-22T07:21:37;23.50;90.40
20487;DHT22;10402;49.012;8.370;2023-06-22T07:24:04;23.60;90.40
20487;DHT22;10402;49.012;8.370;2023-06-22T07:26:31;23.60;90.20
20487;DHT22;10402;49.012;8.370;2023-06-22T07:28:57;23.70;90.20
20487;DHT22;10402;49.012;8.370;2023-06-22T07:31:24;23.80;90.10
20487;DHT22;10402;49.012;8.370;2023-06-22T07:33:50;23.90;90.00
20487;DHT22;10402;49.012;8.370;2023-06-22T07:36:16;23.90;89.90
20487;DHT22;10402;49.012;8.370;2023-06-22T07:38:42;24.00;89.70
20487;DHT22;10402;49.012;8.370;2023-06-22T07:41:08;24.10;89.60
20487;DHT22;10402;49.012;8.370;2023-06-22T07:43:33;24.10;89.40
20487;DHT22;10402;49.012;8.370;2023-06-22T07:46:02;24.20;89.40
20487;DHT22;10402;49.012;8.370;2023-06-22T07:48:28;24.30;88.90
20487;DHT22;10402;49.012;8.370;2023-06-22T07:50:54;24.30;88.80
20487;DHT22;10402;49.012;8.370;2023-06-22T07:53:20;24.40;88.90
20487;DHT22;10402;49.012;8.370;2023-06-22T07:55:47;24.40;88.80
20487;DHT22;10402;49.012;8.370;2023-06-22T07:58:12;24.50;88.70
20487;DHT22;10402;49.012;8.370;2023-06-22T08:00:38;24.60;88.40
20487;DHT22;10402;49.012;8.370;2023-06-22T08:03:03;24.70;88.10
20487;DHT22;10402;49.012;8.370;2023-06-22T08:05:30;24.70;87.80
20487;DHT22;10402;49.012;8.370;2023-06-22T08:07:56;24.80;87.50
20487;DHT22;10402;49.012;8.370;2023-06-22T08:10:21;24.90;87.20
20487;DHT22;10402;49.012;8.370;2023-06-22T08:12:47;25.00;86.90
20487;DHT22;10402;49.012;8.370;2023-06-22T08:15:13;25.00;86.30
20487;DHT22;10402;49.012;8.370;2023-06-22T08:17:39;25.10;86.10
20487;DHT22;10402;49.012;8.370;2023-06-22T08:20:05;25.20;85.90
20487;DHT22;10402;49.012;8.370;2023-06-22T08:22:43;25.30;85.50
20487;DHT22;10402;49.012;8.370;2023-06-22T08:25:09;25.30;85.20
20487;DHT22;10402;49.012;8.370;2023-06-22T08:27:36;25.40;84.60
20487;DHT22;10402;49.012;8.370;2023-06-22T08:30:02;25.40;84.30
20487;DHT22;10402;49.012;8.370;2023-06-22T08:32:28;25.50;84.00
20487;DHT22;10402;49.012;8.370;2023-06-22T08:34:55;25.50;83.70
20487;DHT22;10402;49.012;8.370;2023-06-22T08:37:21;25.60;83.30
20487;DHT22;10402;49.012;8.370;2023-06-22T08:39:49;25.70;83.50
20487;DHT22;10402;49.012;8.370;2023-06-22T08:42:15;25.80;82.40
20487;DHT22;10402;49.012;8.370;2023-06-22T08:44:40;25.90;82.00
20487;DHT22;10402;49.012;8.370;2023-06-22T08:47:06;26.00;82.40
20487;DHT22;10402;49.012;8.370;2023-06-22T08:49:32;26.00;81.30
20487;DHT22;10402;49.012;8.370;2023-06-22T08:51:57;26.10;81.20
20487;DHT22;10402;49.012;8.370;2023-06-22T08:54:23;26.10;80.70
20487;DHT22;10402;49.012;8.370;2023-06-22T08:56:48;26.10;80.50
20487;DHT22;10402;49.012;8.370;2023-06-22T08:59:14;26.20;80.30
20487;DHT22;10402;49.012;8.370;2023-06-22T09:01:39;26.20;80.00
20487;DHT22;10402;49.012;8.370;2023-06-22T09:04:05;26.20;79.80
20487;DHT22;10402;49.012;8.370;2023-06-22T09:06:32;26.30;79.60
20487;DHT22;10402;49.012;8.370;2023-06-22T09:08:58;26.30;79.00
20487;DHT22;10402;49.012;8.370;2023-06-22T09:11:26;26.40;79.00
20487;DHT22;10402;49.012;8.370;2023-06-22T09:13:52;26.40;79.00
20487;DHT22;10402;49.012;8.370;2023-06-22T09:16:19;26.40;78.50
20487;DHT22;10402;49.012;8.370;2023-06-22T09:18:47;26.50;78.30
20487;DHT22;10402;49.012;8.370;2023-06-22T09:21:13;26.60;78.10
20487;DHT22;10402;49.012;8.370;2023-06-22T09:23:39;26.60;77.70
20487;DHT22;10402;49.012;8.370;2023-06-22T09:26:04;26.70;77.70
20487;DHT22;10402;49.012;8.370;2023-06-22T09:28:30;26.70;77.50
20487;DHT22;10402;49.012;8.370;2023-06-22T09:30:55;26.80;77.40
20487;DHT22;10402;49.012;8.370;2023-06-22T09:33:23;26.80;77.00
20487;DHT22;10402;49.012;8.370;2023-06-22T09:35:49;26.80;76.70
20487;DHT22;10402;49.012;8.370;2023-06-22T09:38:16;26.80;76.50
20487;DHT22;10402;49.012;8.370;2023-06-22T09:40:42;26.90;76.50
20487;DHT22;10402;49.012;8.370;2023-06-22T09:43:08;26.90;76.30
20487;DHT22;10402;49.012;8.370;2023-06-22T09:45:33;27.00;75.90
20487;DHT22;10402;49.012;8.370;2023-06-22T09:47:59;27.00;75.60
20487;DHT22;10402;49.012;8.370;2023-06-22T09:50:24;27.00;75.00
20487;DHT22;10402;49.012;8.370;2023-06-22T09:52:50;27.00;75.00
20487;DHT22;10402;49.012;8.370;2023-06-22T09:55:20;27.10;74.80
20487;DHT22;10402;49.012;8.370;2023-06-22T09:57:46;27.20;74.50
20487;DHT22;10402;49.012;8.370;2023-06-22T10:00:12;27.20;74.40
20487;DHT22;10402;49.012;8.370;2023-06-22T10:02:44;27.20;75.10
20487;DHT22;10402;49.012;8.370;2023-06-22T10:05:10;27.20;74.10
20487;DHT22;10402;49.012;8.370;2023-06-22T10:07:35;27.20;74.00
20487;DHT22;10402;49.012;8.370;2023-06-22T10:10:06;27.20;73.70
20487;DHT22;10402;49.012;8.370;2023-06-22T10:12:31;27.20;73.70
20487;DHT22;10402;49.012;8.370;2023-06-22T10:14:57;27.20;73.60
20487;DHT22;10402;49.012;8.370;2023-06-22T10:17:22;27.20;73.50
20487;DHT22;10402;49.012;8.370;2023-06-22T10:19:48;27.30;73.50
20487;DHT22;10402;49.012;8.370;2023-06-22T10:22:13;27.30;73.20
20487;DHT22;10402;49.012;8.370;2023-06-22T10:24:39;27.30;73.20
20487;DHT22;10402;49.012;8.370;2023-06-22T10:27:10;27.40;72.90
20487;DHT22;10402;49.012;8.370;2023-06-22T10:29:36;27.40;72.80
20487;DHT22;10402;49.012;8.370;2023-06-22T10:32:01;27.40;72.70
20487;DHT22;10402;49.012;8.370;2023-06-22T10:34:27;27.40;72.70
20487;DHT22;10402;49.012;8.370;2023-06-22T10:36:53;27.40;72.50
20487;DHT22;10402;49.012;8.370;2023-06-22T10:39:18;27.50;72.60
20487;DHT22;10402;49.012;8.370;2023-06-22T10:41:44;27.40;72.30
20487;DHT22;10402;49.012;8.370;2023-06-22T10:44:09;27.50;72.30
20487;DHT22;10402;49.012;8.370;2023-06-22T10:46:35;27.60;72.20
20487;DHT22;10402;49.012;8.370;2023-06-22T10:49:00;27.60;72.00
20487;DHT22;10402;49.012;8.370;2023-06-22T10:51:29;27.60;71.60
20487;DHT22;10402;49.012;8.370;2023-06-22T10:53:56;27.60;71.50
20487;DHT22;10402;49.012;8.370;2023-06-22T10:56:22;27.60;71.40
20487;DHT22;10402;49.012;8.370;2023-06-22T10:58:47;27.70;71.30
20487;DHT22;10402;49.012;8.370;2023-06-22T11:01:13;27.70;71.20
20487;DHT22;10402;49.012;8.370;2023-06-22T11:03:39;27.80;71.10
20487;DHT22;10402;49.012;8.370;2023-06-22T11:06:05;27.90;71.20
20487;DHT22;10402;49.012;8.370;2023-06-22T11:08:30;28.00;71.40
20487;DHT22;10402;49.012;8.370;2023-06-22T11:10:56;28.10;71.20
20487;DHT22;10402;49.012;8.370;2023-06-22T11:13:21;28.10;70.90
20487;DHT22;10402;49.012;8.370;2023-06-22T11:15:47;28.10;70.80
20487;DHT22;10402;49.012;8.370;2023-06-22T11:18:12;28.10;70.60
20487;DHT22;10402;49.012;8.370;2023-06-22T11:20:38;28.20;70.60
20487;DHT22;10402;49.012;8.370;2023-06-22T11:23:04;28.20;70.20
20487;DHT22;10402;49.012;8.370;2023-06-22T11:25:31;28.20;70.20
20487;DHT22;10402;49.012;8.370;2023-06-22T11:27:57;28.20;70.10
20487;DHT22;10402;49.012;8.370;2023-06-22T11:30:22;28.20;70.00
20487;DHT22;10402;49.012;8.370;2023-06-22T11:32:48;28.30;70.20
20487;DHT22;10402;49.012;8.370;2023-06-22T11:35:14;28.30;70.00
20487;DHT22;10402;49.012;8.370;2023-06-22T11:37:39;28.30;69.90
20487;DHT22;10402;49.012;8.370;2023-06-22T11:40:05;28.40;69.90
20487;DHT22;10402;49.012;8.370;2023-06-22T11:42:34;28.40;69.90
20487;DHT22;10402;49.012;8.370;2023-06-22T11:44:59;28.40;69.60
20487;DHT22;10402;49.012;8.370;2023-06-22T11:47:25;28.40;69.50
20487;DHT22;10402;49.012;8.370;2023-06-22T11:49:50;28.40;69.50
20487;DHT22;10402;49.012;8.370;2023-06-22T11:52:16;28.40;69.50
20487;DHT22;10402;49.012;8.370;2023-06-22T11:54:43;28.40;69.20
20487;DHT22;10402;49.012;8.370;2023-06-22T11:57:08;28.40;69.30
20487;DHT22;10402;49.012;8.370;2023-06-22T11:59:34;28.40;69.40
20487;DHT22;10402;49.012;8.370;2023-06-22T12:01:59;28.50;69.40
20487;DHT22;10402;49.012;8.370;2023-06-22T12:04:25;28.50;69.20
20487;DHT22;10402;49.012;8.370;2023-06-22T12:06:51;28.60;69.00
20487;DHT22;10402;49.012;8.370;2023-06-22T12:09:16;28.60;68.80
20487;DHT22;10402;49.012;8.370;2023-06-22T12:11:42;28.70;68.80
20487;DHT22;10402;49.012;8.370;2023-06-22T12:14:07;28.70;68.90
20487;DHT22;10402;49.012;8.370;2023-06-22T12:16:33;28.80;68.60
20487;DHT22;10402;49.012;8.370;2023-06-22T12:18:58;28.80;68.40
20487;DHT22;10402;49.012;8.370;2023-06-22T12:21:24;28.90;68.30
20487;DHT22;10402;49.012;8.370;2023-06-22T12:23:49;28.90;68.20
20487;DHT22;10402;49.012;8.370;2023-06-22T12:26:15;29.00;68.10
20487;DHT22;10402;49.012;8.370;2023-06-22T12:28:41;29.00;67.90
20487;DHT22;10402;49.012;8.370;2023-06-22T12:31:06;29.00;67.70
20487;DHT22;10402;49.012;8.370;2023-06-22T12:33:32;29.00;67.80
20487;DHT22;10402;49.012;8.370;2023-06-22T12:35:57;29.10;67.70
20487;DHT22;10402;49.012;8.370;2023-06-22T12:38:23;29.10;67.70
20487;DHT22;10402;49.012;8.370;2023-06-22T12:40:51;29.10;67.50
20487;DHT22;10402;49.012;8.370;2023-06-22T12:43:16;29.20;67.40
20487;DHT22;10402;49.012;8.370;2023-06-22T12:45:42;29.20;67.30
20487;DHT22;10402;49.012;8.370;2023-06-22T12:48:07;29.20;67.30
20487;DHT22;10402;49.012;8.370;2023-06-22T12:50:34;29.20;67.40
20487;DHT22;10402;49.012;8.370;2023-06-22T12:52:59;29.20;67.30
20487;DHT22;10402;49.012;8.370;2023-06-22T12:55:27;29.20;67.20
20487;DHT22;10402;49.012;8.370;2023-06-22T12:57:53;29.20;67.20
20487;DHT22;10402;49.012;8.370;2023-06-22T13:00:18;29.30;67.30
20487;DHT22;10402;49.012;8.370;2023-06-22T13:02:45;29.20;67.40
20487;DHT22;10402;49.012;8.370;2023-06-22T13:05:10;29.20;67.40
20487;DHT22;10402;49.012;8.370;2023-06-22T13:07:36;29.20;67.40
20487;DHT22;10402;49.012;8.370;2023-06-22T13:10:02;29.30;67.50
20487;DHT22;10402;49.012;8.370;2023-06-22T13:12:27;29.30;67.60
20487;DHT22;10402;49.012;8.370;2023-06-22T13:14:53;29.30;67.50
20487;DHT22;10402;49.012;8.370;2023-06-22T13:17:19;29.30;67.50
20487;DHT22;10402;49.012;8.370;2023-06-22T13:19:44;29.30;67.50
20487;DHT22;10402;49.012;8.370;2023-06-22T13:22:30;29.30;67.40
20487;DHT22;10402;49.012;8.370;2023-06-22T13:24:56;29.40;67.40
20487;DHT22;10402;49.012;8.370;2023-06-22T13:27:22;29.40;67.30
20487;DHT22;10402;49.012;8.370;2023-06-22T13:29:48;29.40;67.10
20487;DHT22;10402;49.012;8.370;2023-06-22T13:32:13;29.50;67.20
20487;DHT22;10402;49.012;8.370;2023-06-22T13:34:39;29.50;67.20
20487;DHT22;10402;49.012;8.370;2023-06-22T13:37:05;29.50;67.10
20487;DHT22;10402;49.012;8.370;2023-06-22T13:39:30;29.50;66.90
20487;DHT22;10402;49.012;8.370;2023-06-22T13:41:57;29.50;66.60
20487;DHT22;10402;49.012;8.370;2023-06-22T13:44:22;29.50;66.40
20487;DHT22;10402;49.012;8.370;2023-06-22T13:46:48;29.50;66.40
20487;DHT22;10402;49.012;8.370;2023-06-22T13:49:13;29.50;66.40
20487;DHT22;10402;49.012;8.370;2023-06-22T13:51:39;29.50;66.40
20487;DHT22;10402;49.012;8.370;2023-06-22T13:54:05;29.50;66.30
20487;DHT22;10402;49.012;8.370;2023-06-22T13:56:30;29.60;66.40
20487;DHT22;10402;49.012;8.370;2023-06-22T13:58:56;29.60;66.30
20487;DHT22;10402;49.012;8.370;2023-06-22T14:01:21;29.60;66.20
20487;DHT22;10402;49.012;8.370;2023-06-22T14:03:48;29.50;66.00
20487;DHT22;10402;49.012;8.370;2023-06-22T14:06:13;29.50;66.00
20487;DHT22;10402;49.012;8.370;2023-06-22T14:08:39;29.40;65.80
20487;DHT22;10402;49.012;8.370;2023-06-22T14:11:04;29.40;65.70
20487;DHT22;10402;49.012;8.370;2023-06-22T14:13:30;29.30;65.70
20487;DHT22;10402;49.012;8.370;2023-06-22T14:15:55;29.20;65.70
20487;DHT22;10402;49.012;8.370;2023-06-22T14:18:21;29.20;65.80
20487;DHT22;10402;49.012;8.370;2023-06-22T14:20:48;29.10;65.90
20487;DHT22;10402;49.012;8.370;2023-06-22T14:23:14;29.10;66.00
20487;DHT22;10402;49.012;8.370;2023-06-22T14:25:40;29.00;66.00
20487;DHT22;10402;49.012;8.370;2023-06-22T14:28:05;29.00;66.00
20487;DHT22;10402;49.012;8.370;2023-06-22T14:30:31;28.90;66.10
20487;DHT22;10402;49.012;8.370;2023-06-22T14:32:57;28.90;66.30
20487;DHT22;10402;49.012;8.370;2023-06-22T14:35:22;28.80;66.20
20487;DHT22;10402;49.012;8.370;2023-06-22T14:37:49;28.80;66.20
20487;DHT22;10402;49.012;8.370;2023-06-22T14:40:15;28.90;66.20
20487;DHT22;10402;49.012;8.370;2023-06-22T14:42:41;28.90;66.10
20487;DHT22;10402;49.012;8.370;2023-06-22T14:45:06;28.90;66.00
20487;DHT22;10402;49.012;8.370;2023-06-22T14:47:32;28.90;66.00
20487;DHT22;10402;49.012;8.370;2023-06-22T14:49:58;28.90;65.90
20487;DHT22;10402;49.012;8.370;2023-06-22T14:52:25;29.00;66.00
20487;DHT22;10402;49.012;8.370;2023-06-22T14:54:51;29.00;66.00
20487;DHT22;10402;49.012;8.370;2023-06-22T14:57:17;29.10;66.00
20487;DHT22;10402;49.012;8.370;2023-06-22T14:59:48;29.20;65.90
20487;DHT22;10402;49.012;8.370;2023-06-22T15:02:14;29.20;65.70
20487;DHT22;10402;49.012;8.370;2023-06-22T15:04:40;29.30;65.50
20487;DHT22;10402;49.012;8.370;2023-06-22T15:07:05;29.40;65.50
20487;DHT22;10402;49.012;8.370;2023-06-22T15:09:31;29.50;65.50
20487;DHT22;10402;49.012;8.370;2023-06-22T15:11:57;29.50;65.40
20487;DHT22;10402;49.012;8.370;2023-06-22T15:14:23;29.60;65.40
20487;DHT22;10402;49.012;8.370;2023-06-22T15:16:49;29.60;65.40
20487;DHT22;10402;49.012;8.370;2023-06-22T15:19:14;29.70;65.50
20487;DHT22;10402;49.012;8.370;2023-06-22T15:21:40;29.70;65.60
20487;DHT22;10402;49.012;8.370;2023-06-22T15:24:05;29.60;65.60
20487;DHT22;10402;49.012;8.370;2023-06-22T15:26:31;29.60;65.60
20487;DHT22;10402;49.012;8.370;2023-06-22T15:28:56;29.70;65.50
20487;DHT22;10402;49.012;8.370;2023-06-22T15:31:22;29.80;65.20
20487;DHT22;10402;49.012;8.370;2023-06-22T15:33:47;29.80;64.80